sensor_id;sensor_type;location;lat;lon;timestamp;P1;durP1;ratioP1;P2;durP2;ratioP2
64029;SDS011;50277;52.064;4.492;2022-11-20T00:00:56;12.25;;;8.57;;
64029;SDS011;50277;52.064;4.492;2022-11-20T00:03:21;11.55;;;8.77;;
64029;SDS011;50277;52.064;4.492;2022-11-20T00:05:47;14.23;;;8.60;;
64029;SDS011;50277;52.064;4.492;2022-11-20T00:08:12;12.70;;;8.32;;
64029;SDS011;50277;52.064;4.492;2022-11-20T00:10:38;12.63;;;8.60;;
64029;SDS011;50277;52.064;4.492;2022-11-20T00:13:05;12.95;;;8.23;;
64029;SDS011;50277;52.064;4.492;2022-11-20T00:15:31;14.68;;;9.77;;
64029;SDS011;50277;52.064;4.492;2022-11-20T00:17:56;10.60;;;8.07;;
64029;SDS011;50277;52.064;4.492;2022-11-20T00:20:22;11.77;;;8.60;;
64029;SDS011;50277;52.064;4.492;2022-11-20T00:22:47;12.65;;;8.75;;
64029;SDS011;50277;52.064;4.492;2022-11-20T00:25:13;11.75;;;8.38;;
64029;SDS011;50277;52.064;4.492;2022-11-20T00:27:38;10.95;;;8.25;;
64029;SDS011;50277;52.064;4.492;2022-11-20T00:30:04;11.93;;;9.05;;
64029;SDS011;50277;52.064;4.492;2022-11-20T00:32:30;15.38;;;9.20;;
64029;SDS011;50277;52.064;4.492;2022-11-20T00:34:55;14.45;;;9.63;;
64029;SDS011;50277;52.064;4.492;2022-11-20T00:37:20;13.80;;;9.82;;
64029;SDS011;50277;52.064;4.492;2022-11-20T00:39:46;13.93;;;9.45;;
64029;SDS011;50277;52.064;4.492;2022-11-20T00:42:11;16.83;;;9.60;;
64029;SDS011;50277;52.064;4.492;2022-11-20T00:44:36;11.85;;;8.90;;
64029;SDS011;50277;52.064;4.492;2022-11-20T00:47:02;14.73;;;9.73;;
64029;SDS011;50277;52.064;4.492;2022-11-20T00:49:27;17.35;;;9.77;;
64029;SDS011;50277;52.064;4.492;2022-11-20T00:51:52;14.73;;;9.35;;
64029;SDS011;50277;52.064;4.492;2022-11-20T00:54:18;14.80;;;9.80;;
64029;SDS011;50277;52.064;4.492;2022-11-20T00:56:43;16.40;;;9.80;;
64029;SDS011;50277;52.064;4.492;2022-11-20T00:59:09;13.65;;;9.85;;
64029;SDS011;50277;52.064;4.492;2022-11-20T01:01:34;14.27;;;9.32;;
64029;SDS011;50277;52.064;4.492;2022-11-20T01:04:00;13.20;;;9.40;;
64029;SDS011;50277;52.064;4.492;2022-11-20T01:06:27;13.30;;;9.75;;
64029;SDS011;50277;52.064;4.492;2022-11-20T01:08:54;13.40;;;9.15;;
64029;SDS011;50277;52.064;4.492;2022-11-20T01:11:25;13.80;;;9.43;;
64029;SDS011;50277;52.064;4.492;2022-11-20T01:13:52;15.43;;;9.82;;
64029;SDS011;50277;52.064;4.492;2022-11-20T01:16:20;13.80;;;9.30;;
64029;SDS011;50277;52.064;4.492;2022-11-20T01:18:49;12.73;;;8.77;;
64029;SDS011;50277;52.064;4.492;2022-11-20T01:21:26;12.70;;;8.88;;
64029;SDS011;50277;52.064;4.492;2022-11-20T01:23:53;13.13;;;9.52;;
64029;SDS011;50277;52.064;4.492;2022-11-20T01:26:19;11.70;;;8.98;;
64029;SDS011;50277;52.064;4.492;2022-11-20T01:28:46;11.98;;;8.63;;
64029;SDS011;50277;52.064;4.492;2022-11-20T01:31:12;11.82;;;8.63;;
64029;SDS011;50277;52.064;4.492;2022-11-20T01:33:46;12.35;;;8.23;;
64029;SDS011;50277;52.064;4.492;2022-11-20T01:36:13;13.70;;;9.82;;
64029;SDS011;50277;52.064;4.492;2022-11-20T01:38:39;16.48;;;10.23;;
64029;SDS011;50277;52.064;4.492;2022-11-20T01:41:04;14.77;;;9.90;;
64029;SDS011;50277;52.064;4.492;2022-11-20T01:43:30;14.85;;;10.65;;
64029;SDS011;50277;52.064;4.492;2022-11-20T01:45:58;13.55;;;9.98;;
64029;SDS011;50277;52.064;4.492;2022-11-20T01:48:46;15.25;;;9.48;;
64029;SDS011;50277;52.064;4.492;2022-11-20T01:53:53;13.43;;;9.35;;
64029;SDS011;50277;52.064;4.492;2022-11-20T01:56:19;14.55;;;10.00;;
64029;SDS011;50277;52.064;4.492;2022-11-20T01:58:47;13.77;;;9.48;;
64029;SDS011;50277;52.064;4.492;2022-11-20T02:01:14;14.80;;;9.77;;
64029;SDS011;50277;52.064;4.492;2022-11-20T02:03:40;13.73;;;9.40;;
64029;SDS011;50277;52.064;4.492;2022-11-20T02:08:42;14.00;;;9.55;;
64029;SDS011;50277;52.064;4.492;2022-11-20T02:11:08;14.55;;;9.80;;
64029;SDS011;50277;52.064;4.492;2022-11-20T02:13:34;14.85;;;10.40;;
64029;SDS011;50277;52.064;4.492;2022-11-20T02:16:10;18.23;;;10.05;;
64029;SDS011;50277;52.064;4.492;2022-11-20T02:18:37;13.07;;;9.43;;
64029;SDS011;50277;52.064;4.492;2022-11-20T02:21:07;14.15;;;9.90;;
64029;SDS011;50277;52.064;4.492;2022-11-20T02:24:03;14.95;;;10.65;;
64029;SDS011;50277;52.064;4.492;2022-11-20T02:29:28;13.93;;;9.77;;
64029;SDS011;50277;52.064;4.492;2022-11-20T02:31:57;14.88;;;9.63;;
64029;SDS011;50277;52.064;4.492;2022-11-20T02:34:24;12.52;;;9.77;;
64029;SDS011;50277;52.064;4.492;2022-11-20T02:36:49;16.27;;;10.25;;
64029;SDS011;50277;52.064;4.492;2022-11-20T02:39:16;13.57;;;9.88;;
64029;SDS011;50277;52.064;4.492;2022-11-20T02:41:41;16.58;;;10.45;;
64029;SDS011;50277;52.064;4.492;2022-11-20T02:44:07;14.30;;;10.50;;
64029;SDS011;50277;52.064;4.492;2022-11-20T02:46:32;12.48;;;9.32;;
64029;SDS011;50277;52.064;4.492;2022-11-20T02:48:58;14.05;;;9.95;;
64029;SDS011;50277;52.064;4.492;2022-11-20T02:51:23;13.20;;;9.13;;
64029;SDS011;50277;52.064;4.492;2022-11-20T02:53:49;12.77;;;9.68;;
64029;SDS011;50277;52.064;4.492;2022-11-20T02:56:14;13.25;;;9.98;;
64029;SDS011;50277;52.064;4.492;2022-11-20T02:58:40;14.60;;;10.00;;
64029;SDS011;50277;52.064;4.492;2022-11-20T03:01:05;17.30;;;9.82;;
64029;SDS011;50277;52.064;4.492;2022-11-20T03:03:31;18.00;;;9.93;;
64029;SDS011;50277;52.064;4.492;2022-11-20T03:05:58;12.45;;;9.57;;
64029;SDS011;50277;52.064;4.492;2022-11-20T03:08:23;16.95;;;9.38;;
64029;SDS011;50277;52.064;4.492;2022-11-20T03:10:49;12.27;;;9.43;;
64029;SDS011;50277;52.064;4.492;2022-11-20T03:13:14;15.77;;;10.55;;
64029;SDS011;50277;52.064;4.492;2022-11-20T03:15:39;14.20;;;9.90;;
64029;SDS011;50277;52.064;4.492;2022-11-20T03:18:05;15.82;;;9.95;;
64029;SDS011;50277;52.064;4.492;2022-11-20T03:20:31;15.13;;;9.43;;
64029;SDS011;50277;52.064;4.492;2022-11-20T03:22:57;15.40;;;9.85;;
64029;SDS011;50277;52.064;4.492;2022-11-20T03:25:23;15.05;;;9.35;;
64029;SDS011;50277;52.064;4.492;2022-11-20T03:27:48;11.23;;;8.90;;
64029;SDS011;50277;52.064;4.492;2022-11-20T03:30:13;12.45;;;9.18;;
64029;SDS011;50277;52.064;4.492;2022-11-20T03:32:39;15.88;;;10.45;;
64029;SDS011;50277;52.064;4.492;2022-11-20T03:35:04;15.07;;;9.48;;
64029;SDS011;50277;52.064;4.492;2022-11-20T03:37:31;18.05;;;10.85;;
64029;SDS011;50277;52.064;4.492;2022-11-20T03:39:56;13.38;;;9.73;;
64029;SDS011;50277;52.064;4.492;2022-11-20T03:42:22;13.05;;;9.40;;
64029;SDS011;50277;52.064;4.492;2022-11-20T03:45:06;16.65;;;9.70;;
64029;SDS011;50277;52.064;4.492;2022-11-20T03:47:31;17.02;;;10.05;;
64029;SDS011;50277;52.064;4.492;2022-11-20T03:49:57;15.40;;;9.65;;
64029;SDS011;50277;52.064;4.492;2022-11-20T03:52:22;11.48;;;9.25;;
64029;SDS011;50277;52.064;4.492;2022-11-20T03:54:47;14.63;;;9.82;;
64029;SDS011;50277;52.064;4.492;2022-11-20T03:57:12;13.48;;;9.25;;
64029;SDS011;50277;52.064;4.492;2022-11-20T03:59:38;15.15;;;10.32;;
64029;SDS011;50277;52.064;4.492;2022-11-20T04:02:03;17.92;;;10.65;;
64029;SDS011;50277;52.064;4.492;2022-11-20T04:04:28;15.65;;;10.48;;
64029;SDS011;50277;52.064;4.492;2022-11-20T04:06:54;13.70;;;10.25;;
64029;SDS011;50277;52.064;4.492;2022-11-20T04:09:19;15.57;;;10.80;;
64029;SDS011;50277;52.064;4.492;2022-11-20T04:11:44;14.52;;;10.40;;
64029;SDS011;50277;52.064;4.492;2022-11-20T04:14:13;13.63;;;9.90;;
64029;SDS011;50277;52.064;4.492;2022-11-20T04:16:40;15.20;;;9.55;;
64029;SDS011;50277;52.064;4.492;2022-11-20T04:19:08;14.25;;;10.05;;
64029;SDS011;50277;52.064;4.492;2022-11-20T04:21:36;14.65;;;10.27;;
64029;SDS011;50277;52.064;4.492;2022-11-20T04:24:01;15.18;;;9.88;;
64029;SDS011;50277;52.064;4.492;2022-11-20T04:26:27;16.45;;;10.63;;
64029;SDS011;50277;52.064;4.492;2022-11-20T04:28:54;14.75;;;9.52;;
64029;SDS011;50277;52.064;4.492;2022-11-20T04:31:20;13.93;;;9.73;;
64029;SDS011;50277;52.064;4.492;2022-11-20T04:33:49;15.25;;;10.25;;
64029;SDS011;50277;52.064;4.492;2022-11-20T04:36:19;21.15;;;10.60;;
64029;SDS011;50277;52.064;4.492;2022-11-20T04:38:46;15.10;;;10.30;;
64029;SDS011;50277;52.064;4.492;2022-11-20T04:41:17;16.42;;;10.27;;
64029;SDS011;50277;52.064;4.492;2022-11-20T04:43:51;16.13;;;10.45;;
64029;SDS011;50277;52.064;4.492;2022-11-20T04:46:18;14.82;;;9.93;;
64029;SDS011;50277;52.064;4.492;2022-11-20T04:48:45;16.42;;;10.38;;
64029;SDS011;50277;52.064;4.492;2022-11-20T04:51:10;15.45;;;10.75;;
64029;SDS011;50277;52.064;4.492;2022-11-20T04:53:36;16.15;;;9.77;;
64029;SDS011;50277;52.064;4.492;2022-11-20T04:56:02;15.65;;;9.93;;
64029;SDS011;50277;52.064;4.492;2022-11-20T04:58:29;17.75;;;10.63;;
64029;SDS011;50277;52.064;4.492;2022-11-20T05:01:00;14.63;;;10.35;;
64029;SDS011;50277;52.064;4.492;2022-11-20T05:03:29;14.23;;;10.25;;
64029;SDS011;50277;52.064;4.492;2022-11-20T05:05:55;15.02;;;9.88;;
64029;SDS011;50277;52.064;4.492;2022-11-20T05:08:20;16.48;;;10.55;;
64029;SDS011;50277;52.064;4.492;2022-11-20T05:10:45;14.73;;;10.30;;
64029;SDS011;50277;52.064;4.492;2022-11-20T05:13:11;16.25;;;10.88;;
64029;SDS011;50277;52.064;4.492;2022-11-20T05:15:36;15.48;;;11.02;;
64029;SDS011;50277;52.064;4.492;2022-11-20T05:18:01;18.92;;;10.95;;
64029;SDS011;50277;52.064;4.492;2022-11-20T05:20:27;15.50;;;11.25;;
64029;SDS011;50277;52.064;4.492;2022-11-20T05:22:52;15.90;;;10.45;;
64029;SDS011;50277;52.064;4.492;2022-11-20T05:25:17;18.52;;;10.20;;
64029;SDS011;50277;52.064;4.492;2022-11-20T05:27:42;13.98;;;9.82;;
64029;SDS011;50277;52.064;4.492;2022-11-20T05:30:08;17.48;;;11.70;;
64029;SDS011;50277;52.064;4.492;2022-11-20T05:32:34;19.67;;;10.88;;
64029;SDS011;50277;52.064;4.492;2022-11-20T05:34:59;15.98;;;11.23;;
64029;SDS011;50277;52.064;4.492;2022-11-20T05:37:24;15.82;;;11.15;;
64029;SDS011;50277;52.064;4.492;2022-11-20T05:39:50;17.00;;;10.80;;
64029;SDS011;50277;52.064;4.492;2022-11-20T05:42:15;18.42;;;12.10;;
64029;SDS011;50277;52.064;4.492;2022-11-20T05:44:58;16.23;;;11.98;;
64029;SDS011;50277;52.064;4.492;2022-11-20T05:47:24;17.25;;;13.23;;
64029;SDS011;50277;52.064;4.492;2022-11-20T05:49:50;20.60;;;13.32;;
64029;SDS011;50277;52.064;4.492;2022-11-20T05:52:16;17.88;;;12.65;;
64029;SDS011;50277;52.064;4.492;2022-11-20T05:54:41;17.63;;;12.55;;
64029;SDS011;50277;52.064;4.492;2022-11-20T05:57:06;18.63;;;11.98;;
64029;SDS011;50277;52.064;4.492;2022-11-20T05:59:32;16.38;;;11.98;;
64029;SDS011;50277;52.064;4.492;2022-11-20T06:01:57;18.60;;;12.93;;
64029;SDS011;50277;52.064;4.492;2022-11-20T06:04:22;18.85;;;12.75;;
64029;SDS011;50277;52.064;4.492;2022-11-20T06:06:47;17.20;;;12.07;;
64029;SDS011;50277;52.064;4.492;2022-11-20T06:09:13;18.30;;;12.73;;
64029;SDS011;50277;52.064;4.492;2022-11-20T06:11:38;19.83;;;12.57;;
64029;SDS011;50277;52.064;4.492;2022-11-20T06:14:03;18.90;;;12.25;;
64029;SDS011;50277;52.064;4.492;2022-11-20T06:16:29;16.80;;;12.27;;
64029;SDS011;50277;52.064;4.492;2022-11-20T06:18:54;19.48;;;13.43;;
64029;SDS011;50277;52.064;4.492;2022-11-20T06:21:20;20.90;;;13.02;;
64029;SDS011;50277;52.064;4.492;2022-11-20T06:23:48;17.50;;;12.40;;
64029;SDS011;50277;52.064;4.492;2022-11-20T06:28:41;22.25;;;12.63;;
64029;SDS011;50277;52.064;4.492;2022-11-20T06:31:07;20.30;;;12.77;;
64029;SDS011;50277;52.064;4.492;2022-11-20T06:33:33;18.52;;;13.10;;
64029;SDS011;50277;52.064;4.492;2022-11-20T06:35:59;17.27;;;11.77;;
64029;SDS011;50277;52.064;4.492;2022-11-20T06:38:25;17.25;;;11.48;;
64029;SDS011;50277;52.064;4.492;2022-11-20T06:40:51;17.17;;;12.25;;
64029;SDS011;50277;52.064;4.492;2022-11-20T06:43:16;19.38;;;13.18;;
64029;SDS011;50277;52.064;4.492;2022-11-20T06:45:41;20.48;;;13.68;;
64029;SDS011;50277;52.064;4.492;2022-11-20T06:48:07;17.08;;;11.88;;
64029;SDS011;50277;52.064;4.492;2022-11-20T06:50:34;19.40;;;11.93;;
64029;SDS011;50277;52.064;4.492;2022-11-20T06:53:00;26.58;;;12.48;;
64029;SDS011;50277;52.064;4.492;2022-11-20T06:55:27;18.13;;;11.85;;
64029;SDS011;50277;52.064;4.492;2022-11-20T06:57:52;18.90;;;12.60;;
64029;SDS011;50277;52.064;4.492;2022-11-20T07:00:17;21.02;;;12.35;;
64029;SDS011;50277;52.064;4.492;2022-11-20T07:02:43;18.23;;;11.60;;
64029;SDS011;50277;52.064;4.492;2022-11-20T07:05:08;16.65;;;12.07;;
64029;SDS011;50277;52.064;4.492;2022-11-20T07:07:34;19.38;;;12.15;;
64029;SDS011;50277;52.064;4.492;2022-11-20T07:09:59;18.67;;;11.80;;
64029;SDS011;50277;52.064;4.492;2022-11-20T07:12:24;19.20;;;12.85;;
64029;SDS011;50277;52.064;4.492;2022-11-20T07:14:50;18.73;;;11.85;;
64029;SDS011;50277;52.064;4.492;2022-11-20T07:17:15;15.63;;;10.93;;
64029;SDS011;50277;52.064;4.492;2022-11-20T07:19:40;17.65;;;12.40;;
64029;SDS011;50277;52.064;4.492;2022-11-20T07:22:07;18.60;;;12.27;;
64029;SDS011;50277;52.064;4.492;2022-11-20T07:24:33;18.85;;;11.93;;
64029;SDS011;50277;52.064;4.492;2022-11-20T07:26:58;18.23;;;12.13;;
64029;SDS011;50277;52.064;4.492;2022-11-20T07:29:23;16.90;;;12.80;;
64029;SDS011;50277;52.064;4.492;2022-11-20T07:31:49;17.90;;;12.38;;
64029;SDS011;50277;52.064;4.492;2022-11-20T07:34:14;17.73;;;12.48;;
64029;SDS011;50277;52.064;4.492;2022-11-20T07:36:39;17.83;;;12.13;;
64029;SDS011;50277;52.064;4.492;2022-11-20T07:39:05;18.92;;;13.35;;
64029;SDS011;50277;52.064;4.492;2022-11-20T07:41:30;20.17;;;13.00;;
64029;SDS011;50277;52.064;4.492;2022-11-20T07:43:56;22.20;;;13.75;;
64029;SDS011;50277;52.064;4.492;2022-11-20T07:46:21;22.85;;;13.38;;
64029;SDS011;50277;52.064;4.492;2022-11-20T07:48:47;19.80;;;13.35;;
64029;SDS011;50277;52.064;4.492;2022-11-20T07:51:12;18.83;;;12.57;;
64029;SDS011;50277;52.064;4.492;2022-11-20T07:53:38;20.23;;;13.52;;
64029;SDS011;50277;52.064;4.492;2022-11-20T07:56:04;19.80;;;12.93;;
64029;SDS011;50277;52.064;4.492;2022-11-20T07:58:29;20.33;;;12.95;;
64029;SDS011;50277;52.064;4.492;2022-11-20T08:00:55;17.73;;;11.95;;
64029;SDS011;50277;52.064;4.492;2022-11-20T08:03:20;18.55;;;12.48;;
64029;SDS011;50277;52.064;4.492;2022-11-20T08:05:46;20.25;;;13.73;;
64029;SDS011;50277;52.064;4.492;2022-11-20T08:08:11;16.58;;;12.02;;
64029;SDS011;50277;52.064;4.492;2022-11-20T08:10:36;22.42;;;14.10;;
64029;SDS011;50277;52.064;4.492;2022-11-20T08:13:02;20.45;;;14.23;;
64029;SDS011;50277;52.064;4.492;2022-11-20T08:15:49;21.63;;;13.90;;
64029;SDS011;50277;52.064;4.492;2022-11-20T08:18:18;20.25;;;13.23;;
64029;SDS011;50277;52.064;4.492;2022-11-20T08:20:43;21.20;;;14.50;;
64029;SDS011;50277;52.064;4.492;2022-11-20T08:23:09;21.92;;;15.05;;
64029;SDS011;50277;52.064;4.492;2022-11-20T08:25:35;22.42;;;15.13;;
64029;SDS011;50277;52.064;4.492;2022-11-20T08:28:03;23.98;;;14.57;;
64029;SDS011;50277;52.064;4.492;2022-11-20T08:33:00;21.35;;;12.80;;
64029;SDS011;50277;52.064;4.492;2022-11-20T08:35:32;20.95;;;13.45;;
64029;SDS011;50277;52.064;4.492;2022-11-20T08:37:57;22.95;;;13.90;;
64029;SDS011;50277;52.064;4.492;2022-11-20T08:40:23;23.27;;;15.02;;
64029;SDS011;50277;52.064;4.492;2022-11-20T08:42:48;21.58;;;14.02;;
64029;SDS011;50277;52.064;4.492;2022-11-20T08:45:14;17.95;;;13.20;;
64029;SDS011;50277;52.064;4.492;2022-11-20T08:47:40;23.48;;;13.90;;
64029;SDS011;50277;52.064;4.492;2022-11-20T08:50:07;20.45;;;14.98;;
64029;SDS011;50277;52.064;4.492;2022-11-20T08:52:33;21.13;;;14.82;;
64029;SDS011;50277;52.064;4.492;2022-11-20T08:54:58;19.33;;;13.73;;
64029;SDS011;50277;52.064;4.492;2022-11-20T08:57:23;24.67;;;14.52;;
64029;SDS011;50277;52.064;4.492;2022-11-20T08:59:49;23.35;;;15.18;;
64029;SDS011;50277;52.064;4.492;2022-11-20T09:02:14;24.70;;;14.48;;
64029;SDS011;50277;52.064;4.492;2022-11-20T09:04:40;23.55;;;14.80;;
64029;SDS011;50277;52.064;4.492;2022-11-20T09:07:05;20.85;;;14.10;;
64029;SDS011;50277;52.064;4.492;2022-11-20T09:09:31;20.60;;;14.55;;
64029;SDS011;50277;52.064;4.492;2022-11-20T09:11:56;23.70;;;15.25;;
64029;SDS011;50277;52.064;4.492;2022-11-20T09:14:21;26.17;;;14.93;;
64029;SDS011;50277;52.064;4.492;2022-11-20T09:16:49;20.60;;;14.57;;
64029;SDS011;50277;52.064;4.492;2022-11-20T09:19:14;23.77;;;15.38;;
64029;SDS011;50277;52.064;4.492;2022-11-20T09:21:40;20.80;;;14.90;;
64029;SDS011;50277;52.064;4.492;2022-11-20T09:24:05;19.85;;;13.73;;
64029;SDS011;50277;52.064;4.492;2022-11-20T09:26:31;21.30;;;14.77;;
64029;SDS011;50277;52.064;4.492;2022-11-20T09:28:56;24.15;;;14.68;;
64029;SDS011;50277;52.064;4.492;2022-11-20T09:31:22;21.27;;;14.80;;
64029;SDS011;50277;52.064;4.492;2022-11-20T09:33:49;22.10;;;14.73;;
64029;SDS011;50277;52.064;4.492;2022-11-20T09:36:14;23.25;;;14.57;;
64029;SDS011;50277;52.064;4.492;2022-11-20T09:38:40;25.58;;;15.57;;
64029;SDS011;50277;52.064;4.492;2022-11-20T09:41:06;22.35;;;15.20;;
64029;SDS011;50277;52.064;4.492;2022-11-20T09:46:27;22.38;;;15.68;;
64029;SDS011;50277;52.064;4.492;2022-11-20T09:49:01;24.77;;;15.02;;
64029;SDS011;50277;52.064;4.492;2022-11-20T09:51:34;24.52;;;16.40;;
64029;SDS011;50277;52.064;4.492;2022-11-20T09:56:43;28.50;;;17.73;;
64029;SDS011;50277;52.064;4.492;2022-11-20T10:01:50;28.05;;;18.02;;
64029;SDS011;50277;52.064;4.492;2022-11-20T10:04:16;25.27;;;18.45;;
64029;SDS011;50277;52.064;4.492;2022-11-20T10:09:39;25.30;;;17.90;;
64029;SDS011;50277;52.064;4.492;2022-11-20T10:12:31;27.50;;;17.52;;
64029;SDS011;50277;52.064;4.492;2022-11-20T10:31:42;29.50;;;18.25;;
64029;SDS011;50277;52.064;4.492;2022-11-20T10:37:09;24.00;;;17.63;;
64029;SDS011;50277;52.064;4.492;2022-11-20T10:39:40;28.30;;;18.25;;
64029;SDS011;50277;52.064;4.492;2022-11-20T10:42:15;25.20;;;17.88;;
64029;SDS011;50277;52.064;4.492;2022-11-20T10:44:52;27.50;;;17.65;;
64029;SDS011;50277;52.064;4.492;2022-11-20T10:47:26;30.25;;;19.13;;
64029;SDS011;50277;52.064;4.492;2022-11-20T10:49:52;27.98;;;19.40;;
64029;SDS011;50277;52.064;4.492;2022-11-20T11:00:37;34.38;;;20.98;;
64029;SDS011;50277;52.064;4.492;2022-11-20T11:03:02;30.95;;;19.75;;
64029;SDS011;50277;52.064;4.492;2022-11-20T11:07:58;35.60;;;20.08;;
64029;SDS011;50277;52.064;4.492;2022-11-20T11:10:26;35.50;;;21.70;;
64029;SDS011;50277;52.064;4.492;2022-11-20T11:12:56;34.90;;;22.13;;
64029;SDS011;50277;52.064;4.492;2022-11-20T11:17:54;36.20;;;23.13;;
64029;SDS011;50277;52.064;4.492;2022-11-20T11:20:21;37.25;;;23.67;;
64029;SDS011;50277;52.064;4.492;2022-11-20T11:22:49;37.67;;;22.33;;
64029;SDS011;50277;52.064;4.492;2022-11-20T11:25:20;41.35;;;23.23;;
64029;SDS011;50277;52.064;4.492;2022-11-20T11:27:49;40.05;;;23.77;;
64029;SDS011;50277;52.064;4.492;2022-11-20T11:30:17;38.80;;;23.55;;
64029;SDS011;50277;52.064;4.492;2022-11-20T11:32:43;42.30;;;23.88;;
64029;SDS011;50277;52.064;4.492;2022-11-20T11:35:23;47.05;;;23.63;;
64029;SDS011;50277;52.064;4.492;2022-11-20T11:37:50;39.72;;;23.70;;
64029;SDS011;50277;52.064;4.492;2022-11-20T11:40:17;37.03;;;23.02;;
64029;SDS011;50277;52.064;4.492;2022-11-20T11:42:43;39.90;;;24.58;;
64029;SDS011;50277;52.064;4.492;2022-11-20T11:45:16;41.15;;;23.67;;
64029;SDS011;50277;52.064;4.492;2022-11-20T11:50:27;41.78;;;23.92;;
64029;SDS011;50277;52.064;4.492;2022-11-20T11:55:35;39.20;;;23.33;;
64029;SDS011;50277;52.064;4.492;2022-11-20T11:58:11;44.92;;;24.38;;
64029;SDS011;50277;52.064;4.492;2022-11-20T12:00:55;37.78;;;23.42;;
64029;SDS011;50277;52.064;4.492;2022-11-20T12:03:39;39.53;;;23.60;;
64029;SDS011;50277;52.064;4.492;2022-11-20T12:06:12;36.88;;;22.92;;
64029;SDS011;50277;52.064;4.492;2022-11-20T12:08:49;41.33;;;24.13;;
64029;SDS011;50277;52.064;4.492;2022-11-20T12:12:04;43.70;;;23.08;;
64029;SDS011;50277;52.064;4.492;2022-11-20T12:14:40;40.35;;;23.95;;
64029;SDS011;50277;52.064;4.492;2022-11-20T12:17:09;37.42;;;23.40;;
64029;SDS011;50277;52.064;4.492;2022-11-20T12:19:36;47.55;;;25.73;;
64029;SDS011;50277;52.064;4.492;2022-11-20T12:22:21;39.33;;;22.67;;
64029;SDS011;50277;52.064;4.492;2022-11-20T12:27:43;39.50;;;24.35;;
64029;SDS011;50277;52.064;4.492;2022-11-20T12:30:16;42.25;;;24.90;;
64029;SDS011;50277;52.064;4.492;2022-11-20T12:33:02;40.95;;;23.55;;
64029;SDS011;50277;52.064;4.492;2022-11-20T12:47:37;48.35;;;26.30;;
64029;SDS011;50277;52.064;4.492;2022-11-20T12:50:43;46.97;;;26.45;;
64029;SDS011;50277;52.064;4.492;2022-11-20T12:56:38;56.42;;;27.45;;
64029;SDS011;50277;52.064;4.492;2022-11-20T13:02:05;54.45;;;27.55;;
64029;SDS011;50277;52.064;4.492;2022-11-20T13:07:38;58.42;;;28.02;;
64029;SDS011;50277;52.064;4.492;2022-11-20T13:10:05;58.58;;;27.95;;
64029;SDS011;50277;52.064;4.492;2022-11-20T13:12:40;59.00;;;29.23;;
64029;SDS011;50277;52.064;4.492;2022-11-20T13:15:17;66.57;;;31.15;;
64029;SDS011;50277;52.064;4.492;2022-11-20T13:18:01;67.05;;;29.85;;
64029;SDS011;50277;52.064;4.492;2022-11-20T13:20:28;62.75;;;28.98;;
64029;SDS011;50277;52.064;4.492;2022-11-20T13:22:55;61.38;;;29.42;;
64029;SDS011;50277;52.064;4.492;2022-11-20T13:25:40;66.28;;;29.60;;
64029;SDS011;50277;52.064;4.492;2022-11-20T13:30:34;69.63;;;31.40;;
64029;SDS011;50277;52.064;4.492;2022-11-20T13:35:53;59.78;;;29.70;;
64029;SDS011;50277;52.064;4.492;2022-11-20T13:41:53;64.78;;;31.75;;
64029;SDS011;50277;52.064;4.492;2022-11-20T13:47:50;71.75;;;32.90;;
64029;SDS011;50277;52.064;4.492;2022-11-20T13:50:16;66.50;;;32.30;;
64029;SDS011;50277;52.064;4.492;2022-11-20T13:52:46;74.03;;;33.00;;
64029;SDS011;50277;52.064;4.492;2022-11-20T13:55:38;71.53;;;32.40;;
64029;SDS011;50277;52.064;4.492;2022-11-20T14:01:00;80.32;;;33.25;;
64029;SDS011;50277;52.064;4.492;2022-11-20T14:03:32;83.78;;;33.83;;
64029;SDS011;50277;52.064;4.492;2022-11-20T14:05:59;83.30;;;34.67;;
64029;SDS011;50277;52.064;4.492;2022-11-20T14:08:31;82.72;;;35.45;;
64029;SDS011;50277;52.064;4.492;2022-11-20T14:11:17;89.47;;;35.22;;
64029;SDS011;50277;52.064;4.492;2022-11-20T14:16:24;80.75;;;36.22;;
64029;SDS011;50277;52.064;4.492;2022-11-20T14:18:51;91.45;;;36.50;;
64029;SDS011;50277;52.064;4.492;2022-11-20T14:21:23;91.15;;;37.53;;
64029;SDS011;50277;52.064;4.492;2022-11-20T14:23:51;87.95;;;37.47;;
64029;SDS011;50277;52.064;4.492;2022-11-20T14:26:17;94.40;;;39.63;;
64029;SDS011;50277;52.064;4.492;2022-11-20T14:28:47;87.43;;;37.45;;
64029;SDS011;50277;52.064;4.492;2022-11-20T14:31:16;101.18;;;37.67;;
64029;SDS011;50277;52.064;4.492;2022-11-20T14:33:46;88.07;;;39.00;;
64029;SDS011;50277;52.064;4.492;2022-11-20T14:36:16;88.18;;;38.55;;
64029;SDS011;50277;52.064;4.492;2022-11-20T14:38:42;86.45;;;39.17;;
64029;SDS011;50277;52.064;4.492;2022-11-20T14:41:08;99.20;;;39.33;;
64029;SDS011;50277;52.064;4.492;2022-11-20T14:43:44;83.28;;;36.45;;
64029;SDS011;50277;52.064;4.492;2022-11-20T14:46:10;86.40;;;36.70;;
64029;SDS011;50277;52.064;4.492;2022-11-20T14:51:12;93.63;;;38.25;;
64029;SDS011;50277;52.064;4.492;2022-11-20T14:53:48;93.28;;;37.67;;
64029;SDS011;50277;52.064;4.492;2022-11-20T14:56:14;90.30;;;35.97;;
64029;SDS011;50277;52.064;4.492;2022-11-20T14:58:54;94.18;;;36.90;;
64029;SDS011;50277;52.064;4.492;2022-11-20T15:01:25;89.78;;;36.00;;
64029;SDS011;50277;52.064;4.492;2022-11-20T15:04:01;85.05;;;36.00;;
64029;SDS011;50277;52.064;4.492;2022-11-20T15:06:34;95.45;;;38.17;;
64029;SDS011;50277;52.064;4.492;2022-11-20T15:09:02;99.82;;;38.25;;
64029;SDS011;50277;52.064;4.492;2022-11-20T15:11:29;98.20;;;37.80;;
64029;SDS011;50277;52.064;4.492;2022-11-20T15:13:58;89.97;;;37.78;;
64029;SDS011;50277;52.064;4.492;2022-11-20T15:16:27;109.13;;;39.17;;
64029;SDS011;50277;52.064;4.492;2022-11-20T15:18:53;94.50;;;39.35;;
64029;SDS011;50277;52.064;4.492;2022-11-20T15:21:18;97.00;;;37.75;;
64029;SDS011;50277;52.064;4.492;2022-11-20T15:23:45;106.25;;;39.85;;
64029;SDS011;50277;52.064;4.492;2022-11-20T15:26:11;112.05;;;42.90;;
64029;SDS011;50277;52.064;4.492;2022-11-20T15:28:39;95.85;;;39.35;;
64029;SDS011;50277;52.064;4.492;2022-11-20T15:31:12;86.55;;;38.72;;
64029;SDS011;50277;52.064;4.492;2022-11-20T15:33:38;103.07;;;40.92;;
64029;SDS011;50277;52.064;4.492;2022-11-20T15:36:04;100.82;;;39.58;;
64029;SDS011;50277;52.064;4.492;2022-11-20T15:38:29;93.75;;;38.40;;
64029;SDS011;50277;52.064;4.492;2022-11-20T15:40:54;90.95;;;37.42;;
64029;SDS011;50277;52.064;4.492;2022-11-20T15:43:20;81.68;;;35.13;;
64029;SDS011;50277;52.064;4.492;2022-11-20T15:45:46;80.35;;;36.08;;
64029;SDS011;50277;52.064;4.492;2022-11-20T15:51:04;78.53;;;34.85;;
64029;SDS011;50277;52.064;4.492;2022-11-20T15:53:36;70.72;;;33.45;;
64029;SDS011;50277;52.064;4.492;2022-11-20T15:56:02;68.50;;;33.35;;
64029;SDS011;50277;52.064;4.492;2022-11-20T15:58:28;78.97;;;34.67;;
64029;SDS011;50277;52.064;4.492;2022-11-20T16:00:53;82.20;;;34.42;;
64029;SDS011;50277;52.064;4.492;2022-11-20T16:03:19;73.50;;;34.63;;
64029;SDS011;50277;52.064;4.492;2022-11-20T16:05:44;74.53;;;33.33;;
64029;SDS011;50277;52.064;4.492;2022-11-20T16:08:10;72.15;;;35.30;;
64029;SDS011;50277;52.064;4.492;2022-11-20T16:10:35;65.43;;;33.30;;
64029;SDS011;50277;52.064;4.492;2022-11-20T16:13:01;71.38;;;32.20;;
64029;SDS011;50277;52.064;4.492;2022-11-20T16:15:46;69.70;;;32.55;;
64029;SDS011;50277;52.064;4.492;2022-11-20T16:18:19;68.72;;;34.53;;